Time;durP1;ratioP1;P1;durP2;ratioP2;P2;SDS_P1;SDS_P2;PMS_P1;PMS_P2;Temp;Humidity;BMP_temperature;BMP_pressure;BME280_temperature;BME280_humidity;BME280_pressure;Samples;Min_cycle;Max_cycle;Signal;HPM_P1;HPM_P2
2023/09/03 00:02:03;;;;;;;4.60;1.97;;;17.20;99.90;;;18.08;100.00;98868.22;5076658;28;20955;-80
2023/09/03 00:04:32;;;;;;;2.67;1.63;;;17.20;99.90;;;18.11;100.00;98872.31;5077889;28;20464;-80
2023/09/03 00:07:01;;;;;;;1.63;1.50;;;17.20;99.90;;;18.08;100.00;98867.44;5076540;28;21025;-81
2023/09/03 00:09:33;;;;;;;3.60;1.60;;;17.10;99.90;;;18.07;100.00;98865.81;5077317;28;20778;-81
2023/09/03 00:12:06;;;;;;;8.57;1.77;;;17.10;99.90;;;18.05;100.00;98865.19;5073677;28;20461;-80
2023/09/03 00:14:38;;;;;;;8.93;3.87;;;17.10;99.90;;;18.04;100.00;98874.19;5076680;28;20463;-81
2023/09/03 00:17:13;;;;;;;5.10;1.70;;;17.00;99.90;;;18.03;100.00;98867.25;5072966;28;20456;-80
2023/09/03 00:19:43;;;;;;;4.23;1.90;;;17.00;99.90;;;18.04;100.00;98867.06;5076552;28;20483;-81
2023/09/03 00:22:13;;;;;;;7.43;1.80;;;17.00;99.90;;;17.99;100.00;98874.00;5071711;28;20460;-81
2023/09/03 00:24:43;;;;;;;1.97;1.77;;;17.00;99.90;;;17.94;100.00;98876.50;5073704;28;20463;-80
2023/09/03 00:27:13;;;;;;;11.03;2.00;;;17.00;99.90;;;17.94;100.00;98869.38;5073397;28;20487;-80
2023/09/03 00:29:43;;;;;;;4.90;1.60;;;17.00;99.90;;;17.92;100.00;98876.69;5074847;28;20459;-81
2023/09/03 00:32:13;;;;;;;2.83;1.90;;;17.00;99.90;;;17.95;100.00;98870.97;5073806;28;20521;-81
2023/09/03 00:34:42;;;;;;;3.87;1.37;;;16.90;99.90;;;17.94;100.00;98879.13;5073511;28;20477;-80
2023/09/03 00:37:11;;;;;;;7.73;1.40;;;16.80;99.90;;;17.89;100.00;98874.47;5075343;28;21017;-80
2023/09/03 00:39:40;;;;;;;5.03;1.40;;;16.90;99.90;;;17.80;100.00;98870.47;5074136;28;20463;-81
2023/09/03 00:42:10;;;;;;;4.10;1.93;;;16.90;99.90;;;17.81;100.00;98871.25;5073887;28;20977;-81
2023/09/03 00:44:39;;;;;;;10.20;1.53;;;16.80;99.90;;;17.79;100.00;98878.59;5072335;28;20468;-80
2023/09/03 00:47:10;;;;;;;2.60;1.70;;;16.80;99.90;;;17.79;100.00;98878.59;5071796;28;20503;-81
2023/09/03 00:49:43;;;;;;;1.63;1.37;;;16.80;99.90;;;17.70;100.00;98885.97;5073322;28;20467;-80
2023/09/03 00:52:13;;;;;;;1.67;1.57;;;16.80;99.90;;;17.67;100.00;98880.31;5074303;28;20530;-81
2023/09/03 00:54:43;;;;;;;5.97;1.50;;;16.80;99.90;;;17.66;100.00;98883.97;5073213;28;22090;-80
2023/09/03 00:57:13;;;;;;;4.73;1.70;;;16.70;99.90;;;17.64;100.00;98878.06;5072522;28;20582;-80
2023/09/03 00:59:46;;;;;;;7.20;1.90;;;16.70;99.90;;;17.67;100.00;98885.59;5072477;28;20460;-80
2023/09/03 01:02:20;;;;;;;4.57;1.63;;;16.70;99.90;;;17.54;100.00;98887.25;5072587;28;22075;-80
2023/09/03 01:04:49;;;;;;;3.47;2.60;;;16.70;99.90;;;17.50;100.00;98883.41;5073120;28;20479;-80
2023/09/03 01:07:19;;;;;;;2.10;1.50;;;16.60;99.90;;;17.51;100.00;98877.09;5072853;28;20515;-80
2023/09/03 01:09:49;;;;;;;5.50;1.57;;;16.60;99.90;;;17.51;100.00;98887.69;5072313;28;20462;-80
2023/09/03 01:12:25;;;;;;;6.57;1.93;;;16.60;99.90;;;17.52;100.00;98891.94;5073149;28;20461;-80
2023/09/03 01:15:09;;;;;;;16.43;2.10;;;16.50;99.90;;;17.49;100.00;98886.28;5076561;28;20480;-80
2023/09/03 01:17:49;;;;;;;1.57;1.37;;;16.50;99.90;;;17.52;100.00;98889.31;5075053;28;20999;-80
2023/09/03 01:20:26;;;;;;;3.67;1.70;;;16.60;99.90;;;17.47;100.00;98894.41;5075380;28;20513;-80
2023/09/03 01:23:38;;;;;;;5.33;1.87;;;16.50;99.90;;;17.43;100.00;98889.72;5074781;28;20465;-80
2023/09/03 01:26:31;;;;;;;2.53;1.47;;;16.50;99.90;;;17.39;100.00;98889.34;5069279;28;20891;-81
2023/09/03 01:29:04;;;;;;;4.57;1.83;;;16.50;99.90;;;17.33;100.00;98889.38;5075075;28;20574;-80
2023/09/03 01:31:37;;;;;;;4.23;1.63;;;16.50;99.90;;;17.32;100.00;98893.84;5073890;28;20996;-80
2023/09/03 01:34:06;;;;;;;12.00;1.60;;;16.60;99.90;;;17.33;100.00;98882.25;5075957;28;21023;-81
2023/09/03 01:36:37;;;;;;;12.13;3.07;;;16.50;99.90;;;17.36;100.00;98883.66;5074949;28;20488;-80
2023/09/03 01:39:08;;;;;;;5.27;1.63;;;16.40;99.90;;;17.32;100.00;98875.34;5075564;28;20464;-80
2023/09/03 01:41:40;;;;;;;12.00;1.57;;;16.40;99.90;;;17.26;100.00;98872.72;5076105;28;20562;-80
2023/09/03 01:44:11;;;;;;;4.70;1.60;;;16.30;99.90;;;17.25;100.00;98881.69;5073301;28;20467;-80
2023/09/03 01:46:50;;;;;;;2.40;1.80;;;16.30;99.90;;;17.24;100.00;98880.06;5075926;28;20464;-80
2023/09/03 01:49:35;;;;;;;5.47;1.90;;;16.30;99.90;;;17.19;100.00;98883.31;5075547;28;20532;-80
2023/09/03 01:52:24;;;;;;;4.53;1.70;;;16.30;99.90;;;17.24;100.00;98880.88;5070561;28;20480;-80
2023/09/03 01:54:57;;;;;;;3.07;1.57;;;16.30;99.90;;;17.23;100.00;98887.16;5072428;28;20472;-80
2023/09/03 01:57:34;;;;;;;2.27;1.67;;;16.30;99.90;;;17.20;100.00;98890.25;5070067;28;20526;-80
2023/09/03 02:00:11;;;;;;;2.13;1.60;;;16.30;99.90;;;17.16;100.00;98891.66;5072534;28;20460;-80
2023/09/03 02:02:44;;;;;;;9.60;2.27;;;16.20;99.90;;;17.14;100.00;98893.72;5074275;28;20524;-80
2023/09/03 02:05:14;;;;;;;7.67;1.77;;;16.20;99.90;;;17.13;100.00;98893.91;5076610;28;20479;-80
2023/09/03 02:07:44;;;;;;;2.00;1.80;;;16.20;99.90;;;17.15;100.00;98897.97;5075367;28;20463;-80
2023/09/03 02:10:16;;;;;;;3.00;1.40;;;16.10;99.90;;;17.10;100.00;98901.25;5072497;28;21003;-80
2023/09/03 02:12:46;;;;;;;6.27;1.50;;;16.10;99.90;;;17.03;100.00;98910.22;5070210;28;20514;-81
2023/09/03 02:15:17;;;;;;;2.80;1.67;;;16.10;99.90;;;17.05;100.00;98916.09;5071049;28;20467;-81
2023/09/03 02:17:47;;;;;;;5.90;2.00;;;16.10;99.90;;;17.04;100.00;98917.91;5071146;28;20497;-80
2023/09/03 02:20:18;;;;;;;2.10;1.47;;;16.10;99.90;;;17.01;100.00;98922.81;5075804;28;20468;-81
2023/09/03 02:22:47;;;;;;;8.83;1.50;;;16.10;99.90;;;17.01;100.00;98922.81;5073704;28;20521;-80
2023/09/03 02:25:17;;;;;;;3.33;1.40;;;16.10;99.90;;;17.03;100.00;98934.00;5072245;28;20541;-80
2023/09/03 02:27:47;;;;;;;5.80;1.63;;;16.10;99.90;;;17.03;100.00;98941.94;5072747;28;20878;-80
2023/09/03 02:30:20;;;;;;;10.83;1.53;;;16.00;99.90;;;16.94;100.00;98949.25;5072207;28;20462;-80
2023/09/03 02:32:50;;;;;;;12.03;1.70;;;16.10;99.90;;;16.92;100.00;98953.94;5072548;28;20456;-80
2023/09/03 02:35:19;;;;;;;4.10;1.33;;;16.00;99.90;;;16.89;100.00;98953.53;5071175;28;20464;-80
2023/09/03 02:37:49;;;;;;;7.20;1.87;;;16.00;99.90;;;16.88;100.00;98954.53;5071587;28;20503;-81
2023/09/03 02:40:20;;;;;;;3.93;1.83;;;16.00;99.90;;;16.83;100.00;98951.72;5073654;28;20463;-82
2023/09/03 02:42:50;;;;;;;3.37;1.53;;;15.90;99.90;;;16.79;100.00;98958.41;5073595;28;20456;-80
2023/09/03 02:45:22;;;;;;;3.50;1.57;;;15.90;99.90;;;16.80;100.00;98958.19;5075512;28;20460;-80
2023/09/03 02:47:52;;;;;;;1.40;1.30;;;15.80;99.90;;;16.79;100.00;98958.41;5074146;28;20475;-80
2023/09/03 02:50:21;;;;;;;3.00;1.20;;;15.90;99.90;;;16.81;100.00;98965.13;5072223;28;20483;-80
2023/09/03 02:52:51;;;;;;;5.17;1.93;;;15.80;99.90;;;16.80;100.00;98973.25;5070462;28;20508;-80
2023/09/03 02:55:21;;;;;;;2.17;1.40;;;15.80;99.90;;;16.81;100.00;98967.75;5071675;28;20574;-81
2023/09/03 02:57:52;;;;;;;3.57;1.90;;;15.80;99.90;;;16.81;100.00;98964.28;5071119;28;20499;-80
2023/09/03 03:00:23;;;;;;;9.00;1.70;;;15.70;99.90;;;16.80;100.00;98966.13;5069548;28;20471;-80
2023/09/03 03:02:53;;;;;;;2.23;1.63;;;15.80;99.90;;;16.82;100.00;98960.66;5071878;28;20828;-81
2023/09/03 03:05:23;;;;;;;2.47;1.43;;;15.80;99.90;;;16.75;100.00;98965.13;5075979;28;20847;-81
2023/09/03 03:07:52;;;;;;;4.57;1.50;;;15.80;99.90;;;16.74;100.00;98974.06;5075933;28;20459;-80
2023/09/03 03:10:22;;;;;;;3.87;1.30;;;15.80;99.90;;;16.69;100.00;98968.56;5074423;28;20448;-81
2023/09/03 03:12:53;;;;;;;2.13;1.33;;;15.80;99.90;;;16.67;100.00;98973.22;5073755;28;20453;-81
2023/09/03 03:15:24;;;;;;;3.37;1.37;;;15.60;99.90;;;16.67;100.00;98970.59;5072843;28;20544;-81
2023/09/03 03:17:55;;;;;;;3.33;1.27;;;15.60;99.90;;;16.67;100.00;98971.41;5075852;28;20491;-80
2023/09/03 03:20:25;;;;;;;4.37;1.73;;;15.60;99.90;;;16.67;100.00;98978.50;5078136;28;20538;-80
2023/09/03 03:22:57;;;;;;;1.80;1.40;;;15.70;99.90;;;16.69;100.00;98973.88;5077838;28;20506;-80
2023/09/03 03:25:27;;;;;;;1.73;1.43;;;15.70;99.90;;;16.64;100.00;98973.66;5077939;28;20660;-80
2023/09/03 03:27:56;;;;;;;3.03;1.80;;;15.60;99.90;;;16.68;100.00;98974.88;5075657;28;21110;-80
2023/09/03 03:30:29;;;;;;;3.10;1.80;;;15.70;99.90;;;16.59;100.00;98972.41;5076461;28;20456;-80
2023/09/03 03:32:59;;;;;;;3.77;1.93;;;15.70;99.90;;;16.54;100.00;98974.84;5080092;28;20467;-80
2023/09/03 03:35:30;;;;;;;8.53;1.70;;;15.70;99.90;;;16.50;100.00;98975.44;5079712;28;20452;-81
2023/09/03 03:37:59;;;;;;;8.23;1.60;;;15.70;99.90;;;16.54;100.00;98971.38;5078852;28;20500;-80
2023/09/03 03:40:29;;;;;;;4.70;1.93;;;15.60;99.90;;;16.53;100.00;98962.63;5075836;28;20839;-81
2023/09/03 03:42:58;;;;;;;1.67;1.50;;;15.60;99.90;;;16.54;100.00;98959.00;5079699;28;20451;-80
2023/09/03 03:45:29;;;;;;;2.27;1.60;;;15.50;99.90;;;16.49;100.00;98950.84;5075895;28;20467;-80
2023/09/03 03:47:58;;;;;;;1.60;1.50;;;15.60;99.90;;;16.51;100.00;98953.31;5076161;28;21395;-81
2023/09/03 03:50:31;;;;;;;3.90;1.60;;;15.60;99.90;;;16.49;100.00;98953.50;5077174;28;20464;-81
2023/09/03 03:53:00;;;;;;;4.17;1.43;;;15.60;99.90;;;16.48;100.00;98951.88;5075447;28;20544;-81
2023/09/03 03:55:30;;;;;;;1.50;1.40;;;15.60;99.90;;;16.48;100.00;98962.44;5074909;28;20468;-80
2023/09/03 03:58:00;;;;;;;1.50;1.40;;;15.50;99.90;;;16.47;100.00;98966.09;5074624;28;20503;-80
2023/09/03 04:00:32;;;;;;;1.93;1.60;;;15.50;99.90;;;16.44;100.00;98969.16;5076460;28;20460;-80
2023/09/03 04:03:01;;;;;;;16.73;1.57;;;15.50;99.90;;;16.36;100.00;98969.31;5075809;28;20551;-80
2023/09/03 04:05:32;;;;;;;4.10;1.57;;;15.50;99.90;;;16.35;100.00;98970.34;5077277;28;20495;-81
2023/09/03 04:08:03;;;;;;;1.83;1.43;;;15.50;99.90;;;16.40;100.00;98967.91;5077868;28;20892;-80
2023/09/03 04:10:34;;;;;;;2.10;1.90;;;15.50;99.90;;;16.39;100.00;98970.75;5077839;28;20881;-80
2023/09/03 04:13:05;;;;;;;2.10;1.60;;;15.50;99.90;;;16.35;100.00;98970.34;5076379;28;20460;-80
2023/09/03 04:15:40;;;;;;;7.50;1.63;;;15.40;99.90;;;16.35;100.00;98970.34;5074203;28;20472;-81
2023/09/03 04:18:10;;;;;;;4.30;1.70;;;15.50;99.90;;;16.38;100.00;98980.47;5073397;28;20495;-80
2023/09/03 04:20:41;;;;;;;3.93;1.50;;;15.30;99.90;;;16.38;100.00;98982.34;5075068;28;20495;-80
2023/09/03 04:23:12;;;;;;;1.53;1.30;;;15.30;99.90;;;16.37;100.00;98993.91;5073347;28;20471;-80
2023/09/03 04:25:42;;;;;;;2.67;1.90;;;15.30;99.90;;;16.30;100.00;98993.91;5076079;28;20456;-80
2023/09/03 04:28:12;;;;;;;1.90;1.50;;;15.30;99.90;;;16.32;100.00;99001.59;5073541;28;20862;-80
2023/09/03 04:30:43;;;;;;;4.77;1.90;;;15.40;99.90;;;16.36;100.00;99002.81;5074429;28;20460;-80
2023/09/03 04:33:12;;;;;;;6.40;1.77;;;15.30;99.90;;;16.33;100.00;99003.22;5077726;28;20483;-80
2023/09/03 04:35:42;;;;;;;1.50;1.27;;;15.30;99.90;;;16.31;100.00;99014.00;5074192;28;20899;-80
2023/09/03 04:38:12;;;;;;;4.90;1.70;;;15.30;99.90;;;16.27;100.00;99018.06;5076235;28;20491;-80
2023/09/03 04:40:44;;;;;;;1.77;1.57;;;15.30;99.90;;;16.27;100.00;99018.06;5077209;28;20467;-80
2023/09/03 04:43:14;;;;;;;3.67;1.73;;;15.30;99.90;;;16.29;100.00;99028.41;5075952;28;21073;-80
2023/09/03 04:45:48;;;;;;;7.33;1.60;;;15.30;99.90;;;16.28;100.00;99022.31;5074956;28;20525;-80
2023/09/03 04:48:19;;;;;;;2.93;1.70;;;15.30;99.90;;;16.29;100.00;99017.84;5075157;28;20452;-80
2023/09/03 04:50:49;;;;;;;5.73;2.10;;;15.20;99.90;;;16.25;100.00;99011.31;5077119;28;20459;-80
2023/09/03 04:53:19;;;;;;;5.20;1.90;;;15.30;99.90;;;16.18;100.00;99019.22;5075989;28;21377;-80
2023/09/03 04:55:49;;;;;;;1.60;1.50;;;15.30;99.90;;;16.15;100.00;99026.72;5074666;28;20469;-81
2023/09/03 04:58:19;;;;;;;8.93;1.50;;;15.30;99.90;;;16.13;100.00;99032.22;5073752;28;20490;-84
2023/09/03 05:00:51;;;;;;;2.33;1.40;;;15.30;99.90;;;16.08;100.00;99021.44;5070828;28;20705;-82
2023/09/03 05:03:22;;;;;;;13.27;1.90;;;15.30;99.90;;;16.07;100.00;99017.16;5072310;28;20467;-80
2023/09/03 05:05:53;;;;;;;2.50;1.57;;;15.30;99.90;;;16.10;100.00;99022.06;5074816;28;20782;-80
2023/09/03 05:08:36;;;;;;;3.70;1.60;;;15.30;99.90;;;16.13;100.00;99032.22;5074198;28;20459;-80
2023/09/03 05:11:12;;;;;;;4.60;1.50;;;15.30;99.90;;;16.15;100.00;99032.81;5074156;28;20936;-79
2023/09/03 05:13:42;;;;;;;2.80;1.63;;;15.20;99.90;;;16.16;100.00;99037.09;5074747;28;20811;-81
2023/09/03 05:16:13;;;;;;;3.37;1.37;;;15.20;99.90;;;16.14;100.00;99028.53;5072239;28;20464;-81
2023/09/03 05:18:42;;;;;;;20.93;1.90;;;15.30;99.90;;;16.15;100.00;99037.28;5072459;28;21115;-78
2023/09/03 05:21:12;;;;;;;8.83;1.50;;;15.30;99.90;;;16.19;100.00;99035.88;5071505;28;20889;-81
2023/09/03 05:23:42;;;;;;;6.20;2.00;;;15.20;99.90;;;16.19;100.00;99041.97;5072373;28;20540;-80
2023/09/03 05:26:11;;;;;;;9.80;1.63;;;15.20;99.90;;;16.21;100.00;99042.59;5073799;28;20464;-81
2023/09/03 05:28:41;;;;;;;1.57;1.37;;;15.20;99.90;;;16.22;100.00;99046.03;5073859;28;20525;-80
2023/09/03 05:31:12;;;;;;;1.80;1.50;;;15.20;99.90;;;16.15;100.00;99048.66;5071917;28;20468;-83
2023/09/03 05:33:43;;;;;;;2.73;1.80;;;15.20;99.90;;;16.18;100.00;99050.91;5072417;28;20466;-80
2023/09/03 05:36:14;;;;;;;18.47;3.20;;;15.20;99.90;;;16.19;100.00;99049.91;5073355;28;20464;-80
2023/09/03 05:38:43;;;;;;;2.70;1.60;;;15.20;99.90;;;16.21;100.00;99045.22;5073421;28;20502;-80
2023/09/03 05:41:14;;;;;;;5.70;1.50;;;15.20;99.90;;;16.19;100.00;99049.91;5072706;28;20464;-80
2023/09/03 05:43:44;;;;;;;4.27;1.90;;;15.20;99.90;;;16.22;100.00;99049.50;5071927;28;20463;-80
2023/09/03 05:46:15;;;;;;;7.40;1.80;;;15.20;99.90;;;16.21;100.00;99047.06;5072680;28;20464;-80
2023/09/03 05:48:45;;;;;;;1.63;1.40;;;15.20;99.90;;;16.19;100.00;99049.91;5074173;28;20472;-79
2023/09/03 05:51:15;;;;;;;6.50;1.57;;;15.30;99.90;;;16.19;100.00;99049.91;5072694;28;20525;-80
2023/09/03 05:53:44;;;;;;;6.10;1.50;;;15.30;99.90;;;16.23;100.00;99050.31;5072544;28;20957;-80
2023/09/03 05:56:15;;;;;;;4.43;1.60;;;15.30;99.90;;;16.29;100.00;99060.06;5072316;28;20461;-80
2023/09/03 05:58:46;;;;;;;4.73;1.60;;;15.30;99.90;;;16.27;100.00;99057.66;5071488;28;20480;-80
2023/09/03 06:01:17;;;;;;;22.93;1.57;;;15.30;99.90;;;16.28;100.00;99061.09;5068630;28;20550;-80
2023/09/03 06:03:47;;;;;;;11.40;1.60;;;15.30;99.90;;;16.29;100.00;99060.06;5072045;28;20509;-80
2023/09/03 06:06:16;;;;;;;2.03;1.83;;;15.30;99.90;;;16.29;100.00;99058.25;5070820;28;20460;-80
2023/09/03 06:08:47;;;;;;;2.00;1.80;;;15.30;99.90;;;16.29;100.00;99057.44;5072781;28;20475;-80
2023/09/03 06:11:16;;;;;;;3.63;1.60;;;15.30;99.90;;;16.28;100.00;99059.25;5072065;28;20464;-81
2023/09/03 06:13:47;;;;;;;10.13;1.93;;;15.30;99.90;;;16.26;100.00;99061.28;5072503;28;20554;-80
2023/09/03 06:16:23;;;;;;;2.43;1.73;;;15.40;99.90;;;16.27;100.00;99060.28;5071221;28;20832;-80
2023/09/03 06:18:52;;;;;;;3.50;1.90;;;15.40;99.90;;;16.32;100.00;99060.50;5073711;28;20487;-80
2023/09/03 06:21:22;;;;;;;1.40;1.30;;;15.40;99.90;;;16.31;100.00;99063.34;5070133;28;20460;-80
2023/09/03 06:23:52;;;;;;;3.73;1.93;;;15.40;99.90;;;16.36;100.00;99068.81;5071667;28;20513;-80
2023/09/03 06:26:22;;;;;;;7.70;1.80;;;15.40;99.90;;;16.38;100.00;99072.88;5071266;28;20567;-80
2023/09/03 06:28:52;;;;;;;2.23;1.60;;;15.50;99.90;;;16.43;100.00;99073.13;5073380;28;20467;-80
2023/09/03 06:31:28;;;;;;;22.10;2.03;;;15.60;99.90;;;16.47;100.00;99086.75;5070167;28;20504;-80
2023/09/03 06:33:58;;;;;;;6.40;1.40;;;15.50;99.90;;;16.50;100.00;99092.44;5069776;28;20454;-80
2023/09/03 06:36:29;;;;;;;1.80;1.43;;;15.60;99.90;;;16.53;100.00;99091.22;5073747;28;20799;-80
2023/09/03 06:39:00;;;;;;;3.73;1.20;;;15.60;99.90;;;16.57;100.00;99090.66;5074847;28;20497;-80
2023/09/03 06:41:30;;;;;;;4.00;1.87;;;15.70;99.90;;;16.64;100.00;99090.69;5075883;28;20500;-80
2023/09/03 06:44:01;;;;;;;7.97;1.70;;;15.70;99.90;;;16.71;100.00;99085.41;5075543;28;20539;-80
2023/09/03 06:46:32;;;;;;;2.03;1.40;;;15.80;99.90;;;16.77;100.00;99084.59;5076044;28;20462;-80
2023/09/03 06:49:05;;;;;;;3.50;1.70;;;15.80;99.90;;;16.83;100.00;99083.81;5078125;28;20470;-83
2023/09/03 06:51:35;;;;;;;2.60;1.50;;;15.90;99.90;;;16.89;100.00;99088.28;5078927;28;20997;-80
2023/09/03 06:54:07;;;;;;;2.10;1.90;;;15.90;99.90;;;16.95;100.00;99092.75;5079750;28;20455;-80
2023/09/03 06:56:38;;;;;;;7.60;1.80;;;16.00;99.90;;;17.01;100.00;99091.94;5074301;28;20468;-80
2023/09/03 06:59:09;;;;;;;2.30;1.90;;;16.10;99.90;;;17.05;100.00;99101.09;5077692;28;20557;-80
2023/09/03 07:01:46;;;;;;;4.87;1.50;;;16.10;99.90;;;17.10;100.00;99103.97;5077708;28;20458;-80
2023/09/03 07:04:16;;;;;;;5.13;1.60;;;16.20;99.90;;;17.13;100.00;99090.34;5076815;28;20458;-80
2023/09/03 07:06:49;;;;;;;1.60;1.50;;;16.30;99.90;;;17.18;100.00;99103.75;5080393;28;20554;-80
2023/09/03 07:09:25;;;;;;;3.80;2.77;;;16.30;99.90;;;17.23;100.00;99109.25;5051682;28;20471;-80
2023/09/03 07:11:59;;;;;;;3.20;1.63;;;16.40;99.90;;;17.27;100.00;99113.13;5077083;28;20464;-80
2023/09/03 07:14:32;;;;;;;22.27;15.27;;;16.40;99.90;;;17.33;100.00;99111.47;5077121;28;20486;-78
2023/09/03 07:17:05;;;;;;;4.90;3.30;;;16.50;99.90;;;17.36;100.00;99109.25;5077092;28;20557;-80
2023/09/03 07:19:35;;;;;;;1.60;1.40;;;16.50;99.90;;;17.40;100.00;99105.16;5077681;28;20480;-80
2023/09/03 07:22:05;;;;;;;3.70;1.80;;;16.60;99.90;;;17.45;100.00;99113.31;5073680;28;20877;-80
2023/09/03 07:24:36;;;;;;;6.47;1.77;;;16.60;99.90;;;17.49;100.00;99119.81;5077170;28;20455;-80
2023/09/03 07:27:06;;;;;;;2.27;2.00;;;16.60;99.90;;;17.55;100.00;99126.94;5078662;28;20868;-80
2023/09/03 07:29:36;;;;;;;4.30;1.63;;;16.70;99.90;;;17.59;100.00;99120.25;5077907;28;20466;-81
2023/09/03 07:32:07;;;;;;;2.07;1.40;;;16.70;99.90;;;17.63;100.00;99117.19;5078113;28;20471;-80
2023/09/03 07:34:36;;;;;;;6.20;1.83;;;16.70;99.90;;;17.67;100.00;99118.41;5075921;28;20545;-80
2023/09/03 07:37:06;;;;;;;1.60;1.50;;;16.80;99.90;;;17.73;100.00;99122.88;5078050;28;20459;-80
2023/09/03 07:39:38;;;;;;;1.80;1.60;;;16.90;99.90;;;17.79;100.00;99127.34;5077812;28;20510;-80
2023/09/03 07:42:07;;;;;;;3.33;2.23;;;16.90;99.90;;;17.84;100.00;99124.91;5078327;28;20544;-81
2023/09/03 07:44:40;;;;;;;4.30;1.80;;;17.00;99.90;;;17.91;100.00;99128.34;5079067;28;20471;-81
2023/09/03 07:47:11;;;;;;;1.90;1.70;;;17.00;99.90;;;17.97;100.00;99124.88;5076861;28;20470;-81
2023/09/03 07:49:41;;;;;;;4.80;1.60;;;17.20;99.90;;;18.02;100.00;99125.03;5076627;28;20517;-81
2023/09/03 07:52:11;;;;;;;3.30;1.90;;;17.20;99.90;;;18.08;100.00;99122.38;5074670;28;20596;-81
2023/09/03 07:54:40;;;;;;;6.13;1.57;;;17.20;99.90;;;18.15;100.00;99122.38;5074482;28;20467;-80
2023/09/03 07:57:10;;;;;;;5.13;1.77;;;17.30;99.90;;;18.20;100.00;99122.53;5071391;28;20467;-81
2023/09/03 07:59:39;;;;;;;5.30;1.90;;;17.30;99.90;;;18.27;100.00;99125.16;5077725;28;20560;-81
2023/09/03 08:02:08;;;;;;;4.70;1.73;;;17.40;99.90;;;18.31;100.00;99129.84;5075849;28;20529;-82
2023/09/03 08:04:42;;;;;;;4.90;1.80;;;17.40;99.90;;;18.37;100.00;99125.53;5073753;28;20469;-81
2023/09/03 08:07:11;;;;;;;11.03;2.13;;;17.50;99.90;;;18.43;100.00;99125.50;5072251;28;20475;-81
2023/09/03 08:09:41;;;;;;;4.60;3.27;;;17.60;99.90;;;18.48;100.00;99128.34;5074092;28;20471;-80
2023/09/03 08:12:11;;;;;;;42.57;20.50;;;17.60;99.90;;;18.55;100.00;99129.16;5074391;28;20467;-80
2023/09/03 08:14:43;;;;;;;4.20;2.87;;;17.70;99.90;;;18.63;100.00;99129.94;5074793;28;20999;-80
2023/09/03 08:17:14;;;;;;;3.63;1.87;;;17.80;99.90;;;18.69;100.00;99134.38;5074155;28;20459;-81
2023/09/03 08:19:47;;;;;;;4.70;1.70;;;17.90;99.90;;;18.76;100.00;99135.16;5073334;28;20480;-80
2023/09/03 08:22:17;;;;;;;3.50;3.20;;;18.00;99.90;;;18.82;100.00;99129.00;5071747;28;20460;-82
2023/09/03 08:24:47;;;;;;;22.63;12.17;;;18.00;99.90;;;18.90;100.00;99132.22;5071487;28;20957;-78
2023/09/03 08:27:16;;;;;;;23.40;12.33;;;18.10;99.90;;;18.99;100.00;99132.78;5073380;28;20529;-80
2023/09/03 08:29:46;;;;;;;12.47;3.70;;;18.20;99.90;;;19.05;100.00;99134.59;5075890;28;20467;-80
2023/09/03 08:32:15;;;;;;;6.20;2.30;;;18.30;99.90;;;19.13;100.00;99136.97;5074119;28;20471;-81
2023/09/03 08:34:46;;;;;;;4.30;2.70;;;18.40;99.90;;;19.20;100.00;99142.22;5078844;28;20463;-81
2023/09/03 08:37:16;;;;;;;8.43;2.50;;;18.50;99.90;;;19.27;100.00;99142.97;5072584;28;20822;-80
2023/09/03 08:39:46;;;;;;;28.13;15.57;;;18.50;99.90;;;19.33;100.00;99148.22;5075528;28;20491;-82
2023/09/03 08:42:16;;;;;;;7.93;3.70;;;18.60;99.90;;;19.40;100.00;99154.28;5074353;28;20471;-81
2023/09/03 08:44:52;;;;;;;42.23;25.30;;;18.70;99.90;;;19.46;100.00;99164.09;5071458;28;20471;-81
2023/09/03 08:47:24;;;;;;;3.50;2.90;;;18.70;99.90;;;19.52;100.00;99163.22;5073868;28;20456;-81
2023/09/03 08:49:59;;;;;;;2.93;2.60;;;18.80;99.90;;;19.59;100.00;99174.59;5078269;28;20205;-81
2023/09/03 08:52:29;;;;;;;2.57;2.30;;;18.90;99.90;;;19.65;100.00;99178.22;5075919;28;20472;-81
2023/09/03 08:55:02;;;;;;;2.53;2.23;;;18.90;99.90;;;19.69;100.00;99178.59;5079713;28;20517;-81
2023/09/03 08:57:34;;;;;;;6.40;3.07;;;19.00;99.90;;;19.72;100.00;99184.28;5076949;28;20459;-81
2023/09/03 09:00:06;;;;;;;3.50;3.20;;;19.00;99.90;;;19.72;100.00;99188.78;5076290;28;20523;-81
2023/09/03 09:02:37;;;;;;;4.67;3.10;;;19.10;99.90;;;19.78;100.00;99186.09;5076957;28;20463;-81
2023/09/03 09:05:11;;;;;;;3.77;2.70;;;19.20;99.90;;;19.84;100.00;99197.66;5074105;28;20537;-81
2023/09/03 09:07:42;;;;;;;3.63;2.80;;;19.20;99.90;;;19.87;100.00;99203.34;5077248;28;20460;-81
2023/09/03 09:10:17;;;;;;;3.90;3.07;;;19.30;99.90;;;19.92;100.00;99205.38;5077784;28;20475;-81
2023/09/03 09:12:52;;;;;;;3.57;3.20;;;19.30;99.90;;;19.97;100.00;99203.66;5077358;28;20459;-81
2023/09/03 09:15:22;;;;;;;3.70;3.23;;;19.40;99.90;;;20.01;100.00;99202.19;5076802;28;20468;-81
2023/09/03 09:17:51;;;;;;;3.73;3.23;;;19.40;99.90;;;20.06;100.00;99210.31;5077477;28;20467;-81
2023/09/03 09:20:22;;;;;;;5.27;3.10;;;19.40;99.90;;;20.10;100.00;99210.69;5077926;28;20544;-81
2023/09/03 09:22:52;;;;;;;4.70;3.50;;;19.40;99.90;;;20.13;100.00;99212.94;5076789;28;22497;-81
2023/09/03 09:25:24;;;;;;;5.60;4.23;;;19.40;99.90;;;20.18;100.00;99212.25;5076594;28;20464;-81
2023/09/03 09:27:56;;;;;;;5.73;4.50;;;19.40;99.90;;;20.17;100.00;99216.75;5076408;28;20485;-81
2023/09/03 09:30:26;;;;;;;7.33;3.80;;;19.50;99.90;;;20.17;100.00;99219.41;5076971;28;20961;-81
2023/09/03 09:33:04;;;;;;;5.53;4.50;;;19.40;99.90;;;20.21;100.00;99217.13;5075965;28;20465;-81
2023/09/03 09:35:36;;;;;;;5.40;4.77;;;19.40;99.90;;;20.23;100.00;99205.25;5078639;28;20530;-81
2023/09/03 09:38:08;;;;;;;5.77;4.60;;;19.50;99.90;;;20.27;100.00;99213.59;5075724;28;20459;-81
2023/09/03 09:40:37;;;;;;;6.50;4.20;;;19.50;99.90;;;20.28;100.00;99212.56;5076002;28;20483;-81
2023/09/03 09:43:10;;;;;;;7.43;4.27;;;19.50;99.90;;;20.26;100.00;99214.63;5076507;28;20847;-81
2023/09/03 09:46:09;;;;;;;7.27;5.70;;;19.50;99.90;;;20.28;100.00;99221.38;5075204;28;20479;-82
2023/09/03 09:48:56;;;;;;;6.87;5.30;;;19.60;99.90;;;20.29;100.00;99215.03;5071958;28;20455;-81
2023/09/03 09:51:29;;;;;;;5.43;4.77;;;19.60;99.90;;;20.29;100.00;99223.00;5069980;28;20948;-81
2023/09/03 09:54:01;;;;;;;6.90;5.40;;;19.60;99.90;;;20.32;100.00;99219.91;5072262;28;20482;-81
2023/09/03 09:56:34;;;;;;;5.80;4.60;;;19.70;99.90;;;20.36;100.00;99221.09;5070814;28;20463;-81
2023/09/03 09:59:04;;;;;;;8.10;4.40;;;19.70;99.90;;;20.39;100.00;99220.63;5073096;28;20456;-81
2023/09/03 10:01:49;;;;;;;4.10;3.70;;;19.70;99.90;;;20.45;100.00;99221.59;5070960;28;20575;-81
2023/09/03 10:04:27;;;;;;;5.13;4.30;;;19.70;99.90;;;20.48;100.00;99215.81;5074146;28;20488;-81
2023/09/03 10:06:58;;;;;;;6.90;4.60;;;19.80;99.90;;;20.48;100.00;99210.50;5072923;28;20815;-81
2023/09/03 10:09:28;;;;;;;6.67;4.87;;;19.70;99.90;;;20.51;100.00;99200.25;5072396;28;21021;-81
2023/09/03 10:11:58;;;;;;;4.43;3.90;;;19.70;99.90;;;20.57;100.00;99202.03;5073236;28;21017;-81
2023/09/03 10:14:28;;;;;;;8.13;3.70;;;19.80;99.90;;;20.65;100.00;99184.16;5071213;28;20465;-80
2023/09/03 10:17:02;;;;;;;4.17;3.77;;;19.90;99.90;;;20.67;100.00;99182.09;5071916;28;20467;-81
2023/09/03 10:19:43;;;;;;;4.27;3.87;;;20.00;99.90;;;20.71;100.00;99180.59;5071533;28;20457;-80
2023/09/03 10:22:18;;;;;;;6.60;3.80;;;20.10;99.90;;;20.76;100.00;99176.22;5070811;28;20491;-84
2023/09/03 10:24:54;;;;;;;6.00;3.37;;;20.10;99.90;;;20.82;100.00;99169.22;5072694;28;20895;-81
2023/09/03 10:27:29;;;;;;;4.83;3.53;;;20.20;99.90;;;20.88;100.00;99184.25;5076373;28;20489;-82
2023/09/03 10:30:07;;;;;;;4.30;3.50;;;20.30;99.90;;;20.93;100.00;99174.56;5073080;28;20984;-81
2023/09/03 10:32:39;;;;;;;4.10;3.70;;;20.30;99.90;;;20.97;100.00;99172.25;5072010;28;20859;-82